Terminal Aerodrome Forecast
Issued by NWS

Home | Current Version | Previous Version | Text Only | Print | Product List | Glossary On
Versions: 1 2 3 4 5 6 7 8 9 10 11 12 13 14 15 16 17 18 19 20 21 22 23 24 25 26 27 28 29 30
000
FTUS46 KOTX 191744
TAFCOE
TAF
KCOE 191744Z 1918/2018 18008KT P6SM -SHRA SCT020 OVC035
     FM192000 19006KT P6SM BKN030 OVC080
     FM200700 VRB04KT 6SM BR VCFG SCT003 BKN015 BKN100=

USA.gov is the U.S. government's official web portal to all federal, state and local government web resources and services.